Auburn University, AL

4:44 AM CST on February 11, 2016 (GMT -0600)
APRSWXNET | | Change Station
CLOSE
Current Station
Personal Weather Station
Location: Auburn, AL
Elevation: 708 ft
Nearby Weather Stations

Elev 708 ft 32.63 °N, 85.47 °W | Updated 39 minutes ago

Clear
Clear
28 °F
Feels Like 28 °F
N
0
Wind Variable Wind from SW
Gusts 0.0 mph

Today
High -- | Low -- °F
--% Chance of Precip.
Yesterday
High -- | Low -- °F
Precip. -- in
Pressure 30.25 in
Visibility 10.0 miles
Clouds Clear
Windchill 28 °F
Dew Point 21 °F
Humidity 76%
Rainfall in
Snow Depth Not available.
6:29 AM 5:23 PM
Waxing Crescent, 11% visible
METAR KAUO 110956Z AUTO 16003KT 10SM CLR M01/M08 A3017 RMK AO2 SLP242 T10111078 FZRANO
Pressure 30.25 in
Visibility 10.0 miles
Clouds Clear
Windchill 28 °F
Dew Point 21 °F
Humidity 76%
Rainfall in
Snow Depth Not available.
6:29 AM 5:23 PM
Waxing Crescent, 11% visible
METAR KAUO 110956Z AUTO 16003KT 10SM CLR M01/M08 A3017 RMK AO2 SLP242 T10111078 FZRANO

10-Day Weather Forecast

Almanac

Astronomy

Feb. 11, 2016 Rise Set
Actual Time
Civil Twilight
Nautical Twilight
Astronomical Twilight
Moon
Length of Visible Light
Length of Day
Tomorrow will be .
, % of the Moon is Illuminated

Today's Extremes

State Highs State Lows

Community

WunderPhotos

Upload Photos

1,892,030 photos uploaded!

WunderBlog® & News

Nearby

Air Quality

  Air Quality AQ Index Pollutant
Not available.

Snow Depth

Station Depth Elevation

Earthquake Activity

City Distance Mag. Time & Date
Minimum magnitude displayed is 2.5.

Coastal Water Temperatures

Place Temperature

Stations

Nearby Weather Stations

Station Location Temp. Windchill Dew Point Humidity Wind Precip. Elev Updated Type
                   

Watches & Warnings

There are currently no watches in effect.